Time;durP1;ratioP1;P1;durP2;ratioP2;P2;SDS_P1;SDS_P2;PMS_P1;PMS_P2;Temp;Humidity;BMP_temperature;BMP_pressure;BME280_temperature;BME280_humidity;BME280_pressure;Samples;Min_cycle;Max_cycle;Signal;HPM_P1;HPM_P2
2022/05/09 00:01:14;;;;;;;;;7.00;6.00;;;;;22.33;40.39;102126.52;110332;1262;18691;-50
2022/05/09 00:03:44;;;;;;;;;10.33;9.33;;;;;22.32;40.20;102130.00;110298;1264;19497;-51
2022/05/09 00:06:11;;;;;;;;;6.00;6.00;;;;;22.33;40.22;102132.70;110270;1262;18894;-49
2022/05/09 00:08:39;;;;;;;;;9.00;9.00;;;;;22.33;40.23;102137.27;110278;1262;18870;-49
2022/05/09 00:11:07;;;;;;;;;9.67;9.00;;;;;22.33;40.32;102139.39;110263;1263;19589;-51
2022/05/09 00:13:34;;;;;;;;;6.00;6.00;;;;;22.33;40.13;102139.56;110249;1264;18520;-48
2022/05/09 00:16:01;;;;;;;;;7.50;7.00;;;;;22.34;39.98;102142.09;110312;1264;21081;-48
2022/05/09 00:18:29;;;;;;;;;6.00;6.00;;;;;22.34;40.01;102142.63;110299;1263;19892;-47
2022/05/09 00:20:56;;;;;;;;;10.00;9.00;;;;;22.34;40.09;102144.07;110288;1263;18533;-47
2022/05/09 00:23:23;;;;;;;;;6.33;6.33;;;;;22.34;39.92;102149.88;110296;1264;18840;-50
2022/05/09 00:25:50;;;;;;;;;7.33;7.33;;;;;22.34;39.91;102147.84;110293;1263;20877;-48
2022/05/09 00:28:18;;;;;;;;;6.00;6.00;;;;;22.35;39.54;102148.50;110315;1264;18529;-49
2022/05/09 00:30:45;;;;;;;;;9.00;7.50;;;;;22.34;39.58;102144.72;110342;1264;22441;-48
2022/05/09 00:33:12;;;;;;;;;7.33;6.33;;;;;22.34;39.77;102146.94;110294;1264;19537;-49
2022/05/09 00:35:44;;;;;;;;;9.00;9.00;;;;;22.33;39.58;102145.95;110293;1262;18582;-49
2022/05/09 00:38:11;;;;;;;;;6.00;6.00;;;;;22.32;39.51;102144.03;110308;1263;19003;-49
2022/05/09 00:40:38;;;;;;;;;6.00;6.00;;;;;22.32;39.53;102144.23;110273;1263;19797;-50
2022/05/09 00:43:05;;;;;;;;;9.00;7.33;;;;;22.33;39.66;102142.70;110328;1264;22252;-50
2022/05/09 00:45:33;;;;;;;;;6.33;6.33;;;;;22.33;39.35;102146.56;110287;1264;18931;-49
2022/05/09 00:48:00;;;;;;;;;6.00;6.00;;;;;22.34;39.50;102149.73;110249;1261;20797;-47
2022/05/09 00:50:27;;;;;;;;;7.00;6.00;;;;;22.33;39.13;102153.95;110292;1263;19010;-49
2022/05/09 00:52:54;;;;;;;;;6.00;6.00;;;;;22.35;39.47;102157.46;110296;1264;18766;-49
2022/05/09 00:55:22;;;;;;;;;7.00;7.00;;;;;22.34;39.08;102156.92;110286;1264;19806;-50
2022/05/09 00:57:51;;;;;;;;;7.33;6.33;;;;;22.33;39.13;102158.35;110307;1263;18402;-49
2022/05/09 01:00:18;;;;;;;;;5.67;5.67;;;;;22.32;38.90;102157.52;110229;1262;18624;-48
2022/05/09 01:02:46;;;;;;;;;5.33;5.33;;;;;22.32;38.87;102159.77;110232;1263;21147;-49
2022/05/09 01:05:15;;;;;;;;;4.33;4.33;;;;;22.33;38.74;102168.38;110261;1263;22328;-49
2022/05/09 01:07:42;;;;;;;;;6.00;5.50;;;;;22.33;38.83;102170.16;110244;1264;20927;-47
2022/05/09 01:10:09;;;;;;;;;6.00;6.00;;;;;22.34;38.69;102169.58;110308;1264;19572;-49
2022/05/09 01:12:37;;;;;;;;;6.00;5.50;;;;;22.33;38.53;102166.55;110274;1264;18495;-49
2022/05/09 01:15:04;;;;;;;;;5.00;5.00;;;;;22.33;38.64;102163.84;110258;1262;18750;-49
2022/05/09 01:17:32;;;;;;;;;7.33;6.67;;;;;22.33;38.51;102169.79;110273;1263;19481;-49
2022/05/09 01:19:59;;;;;;;;;7.00;6.50;;;;;22.35;38.62;102170.38;110302;1264;22465;-48
2022/05/09 01:22:26;;;;;;;;;5.00;5.00;;;;;22.35;38.47;102174.55;110324;1264;18732;-49
2022/05/09 01:24:54;;;;;;;;;6.00;6.00;;;;;22.34;38.39;102175.51;110324;1264;19549;-47
2022/05/09 01:27:21;;;;;;;;;5.33;5.33;;;;;22.34;38.30;102176.42;110296;1262;18639;-49
2022/05/09 01:29:48;;;;;;;;;5.00;5.00;;;;;22.35;38.39;102174.01;110275;1264;21570;-49
2022/05/09 01:32:15;;;;;;;;;7.00;6.00;;;;;22.35;38.22;102178.72;110299;1264;19609;-48
2022/05/09 01:34:43;;;;;;;;;6.00;6.00;;;;;22.35;38.23;102177.09;110269;1263;18498;-49
2022/05/09 01:37:10;;;;;;;;;5.00;5.00;;;;;22.35;38.22;102179.66;110350;1264;20068;-48
2022/05/09 01:39:38;;;;;;;;;5.00;5.00;;;;;22.35;38.33;102182.23;110297;1263;22900;-49
2022/05/09 01:42:05;;;;;;;;;6.00;5.67;;;;;22.34;38.12;102181.20;110304;1264;18475;-50
2022/05/09 01:44:32;;;;;;;;;5.33;5.00;;;;;22.34;38.16;102182.98;110294;1264;18803;-49
2022/05/09 01:49:45;;;;;;;;;5.00;5.00;;;;;22.35;37.79;102186.91;110268;1264;22609;-48
2022/05/09 01:52:13;;;;;;;;;5.67;5.00;;;;;22.33;37.85;102181.84;110349;1264;22747;-48
2022/05/09 01:54:41;;;;;;;;;6.00;6.00;;;;;22.33;37.75;102181.69;110269;1262;21110;-48
2022/05/09 01:57:08;;;;;;;;;5.00;3.00;;;;;22.34;37.69;102185.21;110288;1264;18541;-49
2022/05/09 01:59:35;;;;;;;;;6.33;5.33;;;;;22.32;37.73;102183.53;110281;1262;18801;-49
2022/05/09 02:02:03;;;;;;;;;6.00;6.00;;;;;22.33;37.56;102186.58;110259;1264;20117;-48
2022/05/09 02:04:31;;;;;;;;;6.00;5.67;;;;;22.33;37.66;102183.44;110281;1262;24299;-48
2022/05/09 02:06:58;;;;;;;;;6.33;6.00;;;;;22.32;37.60;102186.13;110284;1262;18744;-47
2022/05/09 02:09:25;;;;;;;;;5.00;5.00;;;;;22.32;37.64;102184.52;110292;1264;19625;-47
2022/05/09 02:11:53;;;;;;;;;6.00;6.00;;;;;22.31;37.57;102187.84;110276;1264;22080;-49
2022/05/09 02:14:20;;;;;;;;;5.00;5.00;;;;;22.31;37.47;102187.55;110298;1264;18704;-50
2022/05/09 02:16:47;;;;;;;;;5.00;5.00;;;;;22.31;37.52;102184.04;110277;1264;19865;-48
2022/05/09 02:19:14;;;;;;;;;6.00;5.00;;;;;22.32;37.35;102186.13;110316;1264;18586;-48
2022/05/09 02:21:42;;;;;;;;;6.00;5.33;;;;;22.33;37.41;102190.75;110312;1263;22782;-49
2022/05/09 02:24:09;;;;;;;;;5.67;5.00;;;;;22.33;37.45;102193.14;110302;1264;19672;-50
2022/05/09 02:26:37;;;;;;;;;5.00;5.00;;;;;22.32;36.99;102193.92;110306;1263;18443;-52
2022/05/09 02:29:04;;;;;;;;;6.00;6.00;;;;;22.31;37.20;102194.02;110305;1264;22429;-49
2022/05/09 02:31:32;;;;;;;;;5.67;5.00;;;;;22.32;37.21;102197.95;110228;1262;22133;-49
2022/05/09 02:34:01;;;;;;;;;5.00;5.00;;;;;22.30;37.01;102196.67;110275;1263;18506;-49
2022/05/09 02:36:28;;;;;;;;;5.33;5.00;;;;;22.31;37.20;102200.23;110246;1262;18796;-50
2022/05/09 02:38:55;;;;;;;;;5.00;5.00;;;;;22.32;37.08;102202.15;110267;1262;19945;-46
2022/05/09 02:41:23;;;;;;;;;6.00;5.00;;;;;22.32;37.07;102206.34;110301;1263;19933;-47
2022/05/09 02:43:50;;;;;;;;;3.67;3.67;;;;;22.32;37.01;102208.56;110289;1262;18991;-47
2022/05/09 02:46:17;;;;;;;;;4.33;4.33;;;;;22.31;36.88;102215.15;110306;1263;19553;-48
2022/05/09 02:48:45;;;;;;;;;6.00;5.00;;;;;22.31;36.89;102215.25;110258;1262;18907;-47
2022/05/09 02:51:13;;;;;;;;;5.00;5.00;;;;;22.29;36.85;102213.54;110231;1264;18693;-44
2022/05/09 02:53:40;;;;;;;;;5.33;5.33;;;;;22.29;36.82;102213.20;110332;1263;19587;-46
2022/05/09 02:56:08;;;;;;;;;3.33;3.33;;;;;22.28;36.73;102218.92;110277;1263;19028;-48
2022/05/09 02:58:35;;;;;;;;;3.00;3.00;;;;;22.29;36.78;102221.59;110302;1264;18738;-47
2022/05/09 03:01:02;;;;;;;;;5.00;4.00;;;;;22.29;36.75;102224.10;110325;1263;20191;-48
2022/05/09 03:06:14;;;;;;;;;5.00;5.00;;;;;22.27;36.59;102227.05;110274;1262;18805;-50
2022/05/09 03:08:41;;;;;;;;;5.00;5.00;;;;;22.28;36.66;102232.65;110289;1263;23458;-49
2022/05/09 03:11:09;;;;;;;;;5.00;3.67;;;;;22.27;36.65;102235.47;110297;1262;18507;-48
2022/05/09 03:13:36;;;;;;;;;5.33;5.00;;;;;22.28;36.46;102232.81;110298;1263;18892;-49
2022/05/09 03:16:04;;;;;;;;;5.00;5.00;;;;;22.27;36.57;102233.09;110323;1262;21027;-49
2022/05/09 03:18:32;;;;;;;;;3.67;3.67;;;;;22.27;36.42;102231.79;110306;1264;18492;-49
2022/05/09 03:20:59;;;;;;;;;5.00;5.00;;;;;22.27;36.56;102231.65;110260;1264;18915;-47
2022/05/09 03:23:26;;;;;;;;;6.00;5.00;;;;;22.26;36.57;102236.42;110278;1262;19711;-46
2022/05/09 03:25:53;;;;;;;;;6.00;6.00;;;;;22.27;36.41;102239.46;110273;1263;22583;-46
2022/05/09 03:28:21;;;;;;;;;4.33;4.33;;;;;22.27;36.42;102240.13;110329;1264;18730;-46
2022/05/09 03:30:48;;;;;;;;;5.00;5.00;;;;;22.28;36.40;102245.70;110274;1264;19521;-47
2022/05/09 03:33:15;;;;;;;;;6.00;5.00;;;;;22.28;36.21;102241.87;110283;1264;18759;-47
2022/05/09 03:35:43;;;;;;;;;5.00;5.00;;;;;22.28;36.25;102242.59;110263;1263;18892;-47
2022/05/09 03:38:10;;;;;;;;;6.00;6.00;;;;;22.28;36.26;102237.73;110267;1264;19687;-48
2022/05/09 03:40:38;;;;;;;;;6.00;5.67;;;;;22.29;36.19;102238.90;110274;1264;22514;-49
2022/05/09 03:43:06;;;;;;;;;8.00;6.00;;;;;22.27;36.09;102242.50;110352;1264;20420;-49
2022/05/09 03:45:33;;;;;;;;;4.00;4.00;;;;;22.28;36.16;102247.23;110270;1263;19631;-49
2022/05/09 03:48:00;;;;;;;;;8.00;5.00;;;;;22.28;36.22;102252.28;110271;1262;18555;-49
2022/05/09 03:50:28;;;;;;;;;5.00;4.00;;;;;22.28;36.06;102256.10;110299;1262;18726;-48
2022/05/09 03:52:55;;;;;;;;;5.00;5.00;;;;;22.28;36.11;102258.25;110320;1264;19757;-48
2022/05/09 03:55:23;;;;;;;;;5.67;5.00;;;;;22.28;36.08;102257.13;110348;1264;18607;-50
2022/05/09 03:57:50;;;;;;;;;8.33;5.67;;;;;22.29;36.02;102261.23;110263;1263;18747;-49
2022/05/09 04:00:18;;;;;;;;;3.50;3.50;;;;;22.29;36.08;102259.63;110283;1263;20044;-48
2022/05/09 04:02:45;;;;;;;;;5.00;5.00;;;;;22.29;35.97;102261.86;110308;1262;18502;-49
2022/05/09 04:05:15;;;;;;;;;5.00;5.00;;;;;22.29;35.93;102265.34;110323;1263;18755;-49
2022/05/09 04:07:43;;;;;;;;;5.00;5.00;;;;;22.27;35.91;102262.04;110273;1264;19552;-48
2022/05/09 04:10:10;;;;;;;;;6.00;5.00;;;;;22.28;35.91;102263.95;110347;1262;18788;-49
2022/05/09 04:12:37;;;;;;;;;4.00;4.00;;;;;22.28;35.89;102265.70;110260;1263;22254;-48
2022/05/09 04:17:50;;;;;;;;;5.00;5.00;;;;;22.26;35.93;102267.42;110283;1263;22335;-50
2022/05/09 04:20:17;;;;;;;;;5.00;5.00;;;;;22.26;35.99;102269.57;110280;1263;18777;-49
2022/05/09 04:22:44;;;;;;;;;5.67;5.00;;;;;22.25;35.78;102262.02;110286;1264;19760;-48
2022/05/09 04:25:12;;;;;;;;;6.67;6.67;;;;;22.26;35.86;102267.98;110324;1262;18427;-49
2022/05/09 04:27:39;;;;;;;;;5.00;5.00;;;;;22.27;35.85;102267.88;110269;1264;20822;-48
2022/05/09 04:30:08;;;;;;;;;5.00;4.00;;;;;22.29;35.76;102271.83;110262;1262;19740;-47
2022/05/09 04:32:36;;;;;;;;;5.00;4.00;;;;;22.32;35.81;102280.34;110335;1262;18441;-49
2022/05/09 04:35:03;;;;;;;;;5.00;4.67;;;;;22.34;36.02;102292.27;110329;1262;18750;-48
2022/05/09 04:37:32;;;;;;;;;4.00;4.00;;;;;22.38;36.34;102298.63;110350;1262;20101;-47
2022/05/09 04:39:59;;;;;;;;;5.67;5.67;;;;;22.40;36.37;102290.25;110340;1262;20424;-48
2022/05/09 04:42:26;;;;;;;;;6.00;6.00;;;;;22.39;36.21;102298.88;110336;1262;18648;-48
2022/05/09 04:44:53;;;;;;;;;6.33;5.00;;;;;22.40;36.24;102299.73;110339;1262;20015;-50
2022/05/09 04:47:21;;;;;;;;;3.67;3.00;;;;;22.40;36.33;102299.95;110204;1264;22864;-48
2022/05/09 04:49:48;;;;;;;;;4.67;3.00;;;;;22.39;36.43;102307.95;110309;1262;19341;-50
2022/05/09 04:52:15;;;;;;;;;6.00;6.00;;;;;22.35;36.34;102305.14;110228;1263;19464;-51
2022/05/09 04:54:42;;;;;;;;;5.00;5.00;;;;;22.09;34.77;102314.34;110215;1264;18633;-48
2022/05/09 04:57:10;;;;;;;;;5.33;5.00;;;;;21.89;34.87;102313.91;110229;1262;23953;-51
2022/05/09 04:59:37;;;;;;;;;8.00;5.33;;;;;22.05;36.01;102316.77;110119;1263;19501;-48
2022/05/09 05:02:05;;;;;;;;;5.00;5.00;;;;;22.21;36.18;102311.06;110200;1262;18388;-49
2022/05/09 05:04:32;;;;;;;;;5.00;5.00;;;;;22.33;36.29;102309.55;110237;1262;18712;-48
2022/05/09 05:07:00;;;;;;;;;5.00;5.00;;;;;22.42;36.36;102313.91;110266;1264;19557;-48
2022/05/09 05:09:28;;;;;;;;;5.00;5.00;;;;;22.47;36.45;102313.29;110169;1262;18554;-47
2022/05/09 05:11:55;;;;;;;;;5.00;5.00;;;;;22.53;36.71;102312.30;110232;1262;20666;-47
2022/05/09 05:14:22;;;;;;;;;4.00;4.00;;;;;22.59;36.74;102312.97;110221;1262;19684;-48
2022/05/09 05:19:37;;;;;;;;;6.67;6.00;;;;;22.76;37.11;102319.65;110146;1264;18988;-47
2022/05/09 05:22:04;;;;;;;;;6.67;6.67;;;;;22.82;37.13;102321.77;110271;1262;19618;-48
2022/05/09 05:24:31;;;;;;;;;5.33;5.33;;;;;22.81;37.27;102323.88;110206;1264;18565;-48
2022/05/09 05:26:58;;;;;;;;;6.00;6.00;;;;;22.80;37.18;102323.48;110185;1262;20826;-43
2022/05/09 05:29:26;;;;;;;;;5.50;5.50;;;;;22.79;37.36;102323.17;110222;1263;19605;-49
2022/05/09 05:31:53;;;;;;;;;5.67;5.00;;;;;22.81;37.45;102332.25;110237;1262;18615;-47
2022/05/09 05:34:20;;;;;;;;;3.00;3.00;;;;;22.85;37.45;102330.11;110293;1263;22032;-49
2022/05/09 05:36:48;;;;;;;;;5.00;5.00;;;;;22.88;37.48;102330.37;110192;1262;24716;-49
2022/05/09 05:39:16;;;;;;;;;5.67;5.67;;;;;22.85;37.31;102328.95;110250;1262;18490;-50
2022/05/09 05:41:43;;;;;;;;;6.67;5.00;;;;;22.84;37.13;102330.57;110201;1262;18759;-47
2022/05/09 05:44:12;;;;;;;;;4.50;3.50;;;;;22.81;37.13;102330.85;110186;1262;20541;-49
2022/05/09 05:46:40;;;;;;;;;3.00;3.00;;;;;22.82;36.96;102327.23;110284;1264;22913;-48
2022/05/09 05:49:07;;;;;;;;;6.00;6.00;;;;;22.80;36.76;102330.15;110343;1262;21910;-50
2022/05/09 05:51:36;;;;;;;;;6.00;6.00;;;;;22.81;36.75;102330.58;110267;1262;21111;-50
2022/05/09 05:54:03;;;;;;;;;7.00;6.00;;;;;22.90;36.87;102332.83;110243;1262;18692;-49
2022/05/09 05:56:30;;;;;;;;;5.00;5.00;;;;;22.98;36.82;102337.40;110258;1264;18844;-50
2022/05/09 05:58:57;;;;;;;;;5.33;5.33;;;;;23.06;36.64;102339.47;110250;1262;19566;-48
2022/05/09 06:01:25;;;;;;;;;7.00;7.00;;;;;23.05;36.53;102339.56;110317;1262;18660;-48
2022/05/09 06:03:52;;;;;;;;;7.00;7.00;;;;;22.74;35.58;102344.79;110265;1262;18850;-49
2022/05/09 06:06:19;;;;;;;;;9.00;7.00;;;;;22.37;35.21;102348.13;110133;1264;21812;-49
2022/05/09 06:08:48;;;;;;;;;8.00;5.67;;;;;21.92;35.00;102344.23;110191;1261;19117;-46
2022/05/09 06:11:15;;;;;;;;;6.50;6.00;;;;;21.53;34.85;102345.11;110236;1262;18985;-49
2022/05/09 06:13:42;;;;;;;;;8.00;8.00;;;;;21.55;34.79;102345.16;110215;1262;19965;-48
2022/05/09 06:16:10;;;;;;;;;9.33;8.00;;;;;21.26;34.84;102347.79;110269;1262;18492;-50
2022/05/09 06:18:37;;;;;;;;;7.33;6.00;;;;;20.88;34.89;102346.02;110261;1262;18737;-50
2022/05/09 06:21:05;;;;;;;;;8.00;8.00;;;;;20.95;34.83;102352.52;110251;1261;19532;-50
2022/05/09 06:23:32;;;;;;;;;6.00;5.33;;;;;21.04;34.37;102350.42;110232;1261;18829;-49
2022/05/09 06:26:00;;;;;;;;;8.00;8.00;;;;;21.04;33.96;102348.06;110278;1262;19233;-48
2022/05/09 06:28:27;;;;;;;;;7.33;7.33;;;;;21.09;33.76;102345.98;110374;1262;19510;-49
2022/05/09 06:30:54;;;;;;;;;7.33;6.00;;;;;20.85;33.51;102345.46;110280;1262;18646;-51
2022/05/09 06:33:22;;;;;;;;;8.00;8.00;;;;;21.19;33.98;102348.87;110327;1262;19423;-50
2022/05/09 06:35:49;;;;;;;;;7.33;6.00;;;;;21.73;34.07;102352.44;110336;1261;19476;-50
2022/05/09 06:38:17;;;;;;;;;452.00;452.00;;;;;22.08;33.64;102351.26;110243;1262;18561;-51
2022/05/09 06:40:44;;;;;;;;;5.67;5.67;;;;;22.32;33.51;102351.98;110269;1264;18982;-50
2022/05/09 06:43:11;;;;;;;;;8.00;6.00;;;;;22.22;33.23;102350.82;110295;1262;19485;-49
2022/05/09 06:45:38;;;;;;;;;7.33;7.33;;;;;22.07;33.47;102355.34;110280;1264;20437;-49
2022/05/09 06:48:08;;;;;;;;;9.33;7.33;;;;;22.05;33.36;102358.28;110242;1264;18686;-49
2022/05/09 06:50:36;;;;;;;;;5.00;5.00;;;;;21.72;33.36;102357.52;110292;1263;20308;-47
2022/05/09 06:53:03;;;;;;;;;5.00;5.00;;;;;21.86;33.13;102360.98;110314;1262;18515;-49
2022/05/09 06:55:30;;;;;;;;;8.00;8.00;;;;;21.90;32.69;102357.48;110315;1264;20157;-52
2022/05/09 06:57:58;;;;;;;;;8.00;8.00;;;;;21.55;32.33;102358.58;110303;1264;19547;-50
2022/05/09 07:00:25;;;;;;;;;6.00;6.00;;;;;21.31;32.67;102361.03;110212;1262;19275;-53
2022/05/09 07:02:52;;;;;;;;;6.00;5.33;;;;;21.43;32.73;102358.27;110289;1263;18896;-50
2022/05/09 07:05:20;;;;;;;;;9.67;8.33;;;;;21.48;32.51;102360.88;110271;1262;19609;-48
2022/05/09 07:07:48;;;;;;;;;6.00;6.00;;;;;21.35;32.52;102357.80;110232;1262;18900;-48
2022/05/09 07:10:15;;;;;;;;;8.67;8.00;;;;;21.43;32.62;102360.08;110322;1262;18717;-50
2022/05/09 07:12:43;;;;;;;;;8.00;6.00;;;;;21.53;32.91;102358.92;110303;1262;19536;-49
2022/05/09 07:15:10;;;;;;;;;9.33;8.00;;;;;21.53;33.37;102357.52;110272;1263;18639;-48
2022/05/09 07:17:37;;;;;;;;;9.00;8.00;;;;;21.45;33.20;102363.89;110263;1262;21944;-49
2022/05/09 07:20:04;;;;;;;;;8.00;8.00;;;;;21.39;33.17;102362.17;110231;1264;21971;-47
2022/05/09 07:22:32;;;;;;;;;9.33;8.00;;;;;21.43;33.01;102369.00;110188;1262;18357;-54
2022/05/09 07:24:59;;;;;;;;;9.00;6.67;;;;;21.73;33.24;102364.17;110228;1262;18774;-49
2022/05/09 07:27:26;;;;;;;;;6.00;6.00;;;;;22.00;33.23;102366.40;110224;1262;19580;-52
2022/05/09 07:29:53;;;;;;;;;6.67;6.00;;;;;22.00;32.40;102366.23;110253;1262;20253;-54
2022/05/09 07:32:21;;;;;;;;;6.00;6.00;;;;;21.92;32.53;102363.71;110194;1262;19026;-50
2022/05/09 07:34:51;;;;;;;;;6.00;5.50;;;;;21.93;32.66;102367.08;110281;1264;19694;-50
2022/05/09 07:37:21;;;;;;;;;5.33;5.33;;;;;21.93;32.11;102363.23;110333;1264;18545;-50
2022/05/09 07:39:48;;;;;;;;;6.00;5.33;;;;;21.58;31.95;102361.05;109598;1262;810626;-48
2022/05/09 07:42:16;;;;;;;;;6.00;6.00;;;;;21.57;31.99;102362.03;110256;1262;19577;-50
2022/05/09 07:44:43;;;;;;;;;9.00;8.00;;;;;21.61;31.91;102365.70;110330;1261;18779;-50
2022/05/09 07:47:10;;;;;;;;;7.33;7.33;;;;;21.65;32.06;102363.55;110256;1264;18838;-50
2022/05/09 07:49:37;;;;;;;;;6.67;6.67;;;;;21.64;31.76;102362.48;110272;1263;19660;-49
2022/05/09 07:52:05;;;;;;;;;8.00;8.00;;;;;21.54;31.84;102359.41;110306;1264;19019;-49
2022/05/09 07:54:33;;;;;;;;;9.00;9.00;;;;;21.56;31.94;102358.56;110269;1264;19008;-49
2022/05/09 07:57:00;;;;;;;;;10.00;8.67;;;;;21.65;31.83;102358.05;110202;1262;19611;-49
2022/05/09 07:59:27;;;;;;;;;8.00;8.00;;;;;21.59;31.76;102362.41;110250;1263;21552;-45
2022/05/09 08:01:54;;;;;;;;;9.50;9.50;;;;;21.59;31.59;102357.32;110233;1263;18770;-49
2022/05/09 08:04:22;;;;;;;;;8.00;6.00;;;;;21.55;31.62;102355.14;110294;1264;19775;-46
2022/05/09 08:06:49;;;;;;;;;9.33;8.33;;;;;21.71;31.55;102355.34;110192;1264;22902;-50
2022/05/09 08:09:16;;;;;;;;;8.00;8.00;;;;;21.83;31.25;102350.30;110235;1262;18720;-48
2022/05/09 08:11:44;;;;;;;;;8.00;8.00;;;;;21.79;31.28;102348.93;110267;1262;19486;-47
2022/05/09 08:14:11;;;;;;;;;9.33;8.67;;;;;21.51;31.19;102351.34;110265;1264;18519;-50
2022/05/09 08:16:39;;;;;;;;;6.67;6.00;;;;;21.59;31.13;102350.98;110247;1262;22009;-49
2022/05/09 08:19:06;;;;;;;;;6.00;5.33;;;;;21.70;30.73;102349.78;110283;1262;20178;-50
2022/05/09 08:21:36;;;;;;;;;8.00;8.00;;;;;21.75;31.26;102351.14;110241;1262;18941;-50
2022/05/09 08:24:03;;;;;;;;;5.00;5.00;;;;;21.90;30.83;102345.90;110229;1262;18729;-50
2022/05/09 08:26:31;;;;;;;;;5.33;5.00;;;;;21.95;30.55;102354.69;110289;1264;19488;-49
2022/05/09 08:28:58;;;;;;;;;6.00;6.00;;;;;21.92;30.76;102353.11;110263;1264;18749;-49
2022/05/09 08:31:25;;;;;;;;;9.33;8.00;;;;;21.87;30.70;102351.98;110229;1263;19513;-49
2022/05/09 08:33:52;;;;;;;;;7.00;6.67;;;;;21.98;30.59;102352.70;110235;1262;21871;-52
2022/05/09 08:39:01;;;;;;;;;5.50;5.00;;;;;22.03;30.41;102355.70;110318;1262;18727;-51
2022/05/09 08:41:28;;;;;;;;;5.00;5.00;;;;;22.12;30.30;102351.73;110334;1261;19728;-48
2022/05/09 08:43:56;;;;;;;;;4.67;4.67;;;;;22.06;29.74;102347.79;110270;1262;18432;-50
2022/05/09 08:46:23;;;;;;;;;6.00;5.00;;;;;21.92;29.78;102341.50;110310;1264;24090;-49
2022/05/09 08:48:50;;;;;;;;;6.00;6.00;;;;;21.91;29.56;102344.86;110269;1261;19584;-51
2022/05/09 08:51:17;;;;;;;;;6.00;5.00;;;;;21.79;29.31;102343.98;110259;1262;18732;-50
2022/05/09 08:53:45;;;;;;;;;5.67;5.00;;;;;21.78;29.58;102340.31;110276;1262;19459;-49
2022/05/09 08:56:12;;;;;;;;;4.00;4.00;;;;;21.91;29.63;102342.13;110251;1262;19815;-50
2022/05/09 08:58:40;;;;;;;;;5.00;5.00;;;;;22.05;29.43;102338.02;110230;1262;18455;-50
2022/05/09 09:01:07;;;;;;;;;5.00;5.00;;;;;22.06;29.37;102343.36;110221;1264;19136;-52
2022/05/09 09:03:37;;;;;;;;;5.00;5.00;;;;;21.97;29.23;102335.59;110234;1262;19721;-50
2022/05/09 09:06:04;;;;;;;;;5.00;5.00;;;;;21.97;29.43;102341.33;110249;1261;18883;-53
2022/05/09 09:08:33;;;;;;;;;6.00;6.00;;;;;22.08;29.96;102340.13;110229;1262;18827;-50
2022/05/09 09:11:00;;;;;;;;;5.00;5.00;;;;;22.11;29.34;102345.32;110283;1262;20075;-49
2022/05/09 09:13:29;;;;;;;;;6.00;6.00;;;;;22.08;29.49;102340.61;110348;1262;18488;-50
2022/05/09 09:15:57;;;;;;;;;6.00;6.00;;;;;22.03;28.53;102343.52;110284;1262;19398;-49
2022/05/09 09:18:24;;;;;;;;;5.00;5.00;;;;;22.08;29.09;102340.36;110214;1262;19698;-55
2022/05/09 09:20:51;;;;;;;;;9.00;6.00;;;;;22.22;29.20;102338.59;110281;1262;18516;-49
2022/05/09 09:23:18;;;;;;;;;5.00;5.00;;;;;22.24;28.80;102341.52;110224;1262;18776;-49
2022/05/09 09:25:46;;;;;;;;;9.00;8.67;;;;;22.19;28.85;102345.65;110238;1262;23150;-50
2022/05/09 09:28:13;;;;;;;;;5.67;5.67;;;;;22.04;28.33;102345.73;110309;1262;18528;-47
2022/05/09 09:30:40;;;;;;;;;8.00;6.00;;;;;21.95;28.38;102340.05;110257;1262;18740;-48
2022/05/09 09:33:08;;;;;;;;;8.00;6.00;;;;;21.99;28.39;102339.19;110256;1262;20329;-49
2022/05/09 09:35:35;;;;;;;;;5.33;5.00;;;;;21.96;28.54;102339.05;110279;1262;18751;-48
2022/05/09 09:38:03;;;;;;;;;6.00;6.00;;;;;22.13;28.83;102342.21;110240;1264;18792;-50
2022/05/09 09:40:30;;;;;;;;;6.00;6.00;;;;;22.05;28.58;102329.46;110301;1264;22245;-52
2022/05/09 09:42:57;;;;;;;;;5.00;4.67;;;;;21.65;28.37;102337.32;110219;1264;18587;-51
2022/05/09 09:45:25;;;;;;;;;5.33;5.00;;;;;20.97;28.73;102344.54;110273;1262;21935;-50
2022/05/09 09:47:52;;;;;;;;;5.00;5.00;;;;;20.80;28.65;102344.95;110300;1262;19714;-49
2022/05/09 09:50:20;;;;;;;;;5.00;5.00;;;;;21.08;28.81;102340.61;110291;1262;18418;-49
2022/05/09 09:52:47;;;;;;;;;4.67;4.67;;;;;21.04;28.94;102337.12;110305;1261;18742;-49
2022/05/09 09:55:14;;;;;;;;;8.00;6.00;;;;;21.25;29.24;102331.58;110334;1261;19581;-53
2022/05/09 09:57:41;;;;;;;;;5.00;5.00;;;;;21.56;29.21;102325.09;110224;1262;18899;-48
2022/05/09 10:00:09;;;;;;;;;5.33;5.00;;;;;21.80;28.79;102323.30;110260;1261;18777;-45
2022/05/09 10:02:36;;;;;;;;;6.00;5.00;;;;;21.97;28.80;102320.83;110266;1262;19599;-50
2022/05/09 10:05:03;;;;;;;;;6.00;5.67;;;;;22.02;29.08;102319.20;110202;1262;18394;-47
2022/05/09 10:07:31;;;;;;;;;8.00;7.33;;;;;21.98;28.84;102317.39;110316;1260;18766;-49
2022/05/09 10:09:58;;;;;;;;;8.50;6.00;;;;;21.90;28.81;102319.64;110277;1262;19511;-48
2022/05/09 10:12:25;;;;;;;;;8.00;6.00;;;;;21.89;28.49;102317.25;110297;1262;18854;-50
2022/05/09 10:14:52;;;;;;;;;5.33;5.33;;;;;21.68;28.36;102319.89;110312;1261;18833;-52
2022/05/09 10:17:20;;;;;;;;;12.67;11.33;;;;;21.35;28.26;102319.77;110292;1262;22189;-48
2022/05/09 10:19:47;;;;;;;;;9.67;9.00;;;;;21.46;28.40;102314.59;110364;1261;18436;-47
2022/05/09 10:24:59;;;;;;;;;6.00;6.00;;;;;21.74;28.68;102307.13;110234;1264;20752;-48
2022/05/09 10:27:27;;;;;;;;;8.00;6.00;;;;;21.59;28.18;102309.52;110251;1264;22784;-49
2022/05/09 10:29:56;;;;;;;;;5.00;5.00;;;;;21.57;28.48;102306.60;110323;1262;20156;-50
2022/05/09 10:32:23;;;;;;;;;9.00;8.00;;;;;21.65;28.44;102308.61;110217;1262;19725;-50
2022/05/09 10:34:50;;;;;;;;;9.00;8.67;;;;;21.69;28.84;102305.15;110181;1262;18814;-49
2022/05/09 10:37:17;;;;;;;;;9.00;6.67;;;;;21.72;28.79;102307.20;110240;1264;22946;-49
2022/05/09 10:39:45;;;;;;;;;6.00;5.00;;;;;21.00;28.92;102305.13;110109;1262;19757;-50
2022/05/09 10:42:13;;;;;;;;;5.00;5.00;;;;;21.08;29.03;102302.42;110188;1261;18891;-48
2022/05/09 10:44:40;;;;;;;;;5.33;5.33;;;;;20.74;28.84;102295.67;110210;1262;18996;-49
2022/05/09 10:47:07;;;;;;;;;2.67;2.00;;;;;21.00;29.19;102294.40;110233;1262;19655;-47
2022/05/09 10:49:34;;;;;;;;;6.00;5.00;;;;;21.32;29.20;102288.38;110272;1264;22698;-48
2022/05/09 10:52:02;;;;;;;;;6.00;5.33;;;;;21.66;29.47;102286.08;110247;1262;18597;-48
2022/05/09 10:54:29;;;;;;;;;6.00;5.67;;;;;21.85;29.50;102286.11;110271;1262;19555;-50
2022/05/09 10:56:56;;;;;;;;;6.00;5.00;;;;;21.92;29.53;102284.17;110293;1262;20166;-51
2022/05/09 10:59:23;;;;;;;;;6.50;5.00;;;;;21.88;29.18;102281.08;110237;1263;18986;-51
2022/05/09 11:01:51;;;;;;;;;10.00;8.00;;;;;21.91;29.45;102274.62;110276;1262;22213;-49
2022/05/09 11:04:18;;;;;;;;;5.67;5.33;;;;;21.87;28.96;102275.36;110306;1264;18463;-54
2022/05/09 11:06:46;;;;;;;;;5.00;5.00;;;;;21.78;28.96;102274.05;110233;1262;18884;-49
2022/05/09 11:09:13;;;;;;;;;5.33;5.00;;;;;21.76;29.06;102269.14;110226;1262;21075;-49
2022/05/09 11:11:40;;;;;;;;;5.00;5.00;;;;;21.72;29.08;102266.77;110282;1262;23541;-52
2022/05/09 11:14:07;;;;;;;;;5.00;4.00;;;;;21.80;28.91;102266.02;110273;1264;18941;-50
2022/05/09 11:16:34;;;;;;;;;5.67;5.67;;;;;21.83;28.88;102259.88;110294;1264;19503;-50
2022/05/09 11:19:02;;;;;;;;;5.00;5.00;;;;;21.77;28.58;102265.04;110308;1262;18954;-49
2022/05/09 11:21:29;;;;;;;;;6.00;5.00;;;;;21.83;28.81;102266.83;110304;1262;19116;-49
2022/05/09 11:23:57;;;;;;;;;5.00;5.00;;;;;21.79;28.57;102264.14;110259;1262;22731;-50
2022/05/09 11:26:24;;;;;;;;;5.00;5.00;;;;;21.60;28.66;102257.70;110262;1264;18567;-50
2022/05/09 11:28:51;;;;;;;;;5.00;5.00;;;;;21.67;28.51;102258.52;110290;1262;19080;-50
2022/05/09 11:31:18;;;;;;;;;6.67;5.33;;;;;21.64;28.63;102249.55;110299;1263;22077;-48
2022/05/09 11:33:45;;;;;;;;;6.00;6.00;;;;;21.70;28.74;102249.88;110283;1262;22075;-49